sensor_id;sensor_type;location;lat;lon;timestamp;pressure;altitude;pressure_sealevel;temperature
67501;BMP180;54349;52.528;19.760;2022-07-06T00:01:12;100826.60;;;21.60
67501;BMP180;54349;52.528;19.760;2022-07-06T00:03:41;100824.40;;;21.80
67501;BMP180;54349;52.528;19.760;2022-07-06T00:06:10;100826.00;;;21.90
67501;BMP180;54349;52.528;19.760;2022-07-06T00:08:39;100821.60;;;21.72
67501;BMP180;54349;52.528;19.760;2022-07-06T00:11:07;100826.80;;;21.50
67501;BMP180;54349;52.528;19.760;2022-07-06T00:13:36;100832.60;;;21.60
67501;BMP180;54349;52.528;19.760;2022-07-06T00:16:04;100832.20;;;21.80
67501;BMP180;54349;52.528;19.760;2022-07-06T00:18:33;100824.20;;;21.90
67501;BMP180;54349;52.528;19.760;2022-07-06T00:21:01;100823.00;;;21.70
67501;BMP180;54349;52.528;19.760;2022-07-06T00:23:29;100829.60;;;21.56
67501;BMP180;54349;52.528;19.760;2022-07-06T00:25:57;100828.40;;;21.70
67501;BMP180;54349;52.528;19.760;2022-07-06T00:28:26;100834.60;;;21.80
67501;BMP180;54349;52.528;19.760;2022-07-06T00:30:54;100827.80;;;21.90
67501;BMP180;54349;52.528;19.760;2022-07-06T00:33:23;100826.60;;;21.68
67501;BMP180;54349;52.528;19.760;2022-07-06T00:35:52;100825.00;;;21.60
67501;BMP180;54349;52.528;19.760;2022-07-06T00:38:20;100828.60;;;21.80
67501;BMP180;54349;52.528;19.760;2022-07-06T00:40:49;100829.20;;;21.90
67501;BMP180;54349;52.528;19.760;2022-07-06T00:43:18;100817.80;;;21.80
67501;BMP180;54349;52.528;19.760;2022-07-06T00:45:47;100816.00;;;21.54
67501;BMP180;54349;52.528;19.760;2022-07-06T00:48:16;100818.00;;;21.60
67501;BMP180;54349;52.528;19.760;2022-07-06T00:50:45;100817.60;;;21.74
67501;BMP180;54349;52.528;19.760;2022-07-06T00:53:14;100811.40;;;21.90
67501;BMP180;54349;52.528;19.760;2022-07-06T00:55:43;100817.00;;;21.78
67501;BMP180;54349;52.528;19.760;2022-07-06T00:58:11;100816.60;;;21.70
67501;BMP180;54349;52.528;19.760;2022-07-06T01:00:39;100815.00;;;21.80
67501;BMP180;54349;52.528;19.760;2022-07-06T01:03:13;100813.80;;;22.00
67501;BMP180;54349;52.528;19.760;2022-07-06T01:05:41;100804.60;;;21.80
67501;BMP180;54349;52.528;19.760;2022-07-06T01:08:11;100804.40;;;21.60
67501;BMP180;54349;52.528;19.760;2022-07-06T01:10:40;100801.80;;;21.60
67501;BMP180;54349;52.528;19.760;2022-07-06T01:13:09;100799.40;;;21.80
67501;BMP180;54349;52.528;19.760;2022-07-06T01:15:39;100799.00;;;21.90
67501;BMP180;54349;52.528;19.760;2022-07-06T01:18:10;100792.40;;;21.70
67501;BMP180;54349;52.528;19.760;2022-07-06T01:20:42;100795.80;;;21.66
67501;BMP180;54349;52.528;19.760;2022-07-06T01:23:10;100796.20;;;21.80
67501;BMP180;54349;52.528;19.760;2022-07-06T01:25:39;100796.20;;;21.90
67501;BMP180;54349;52.528;19.760;2022-07-06T01:28:07;100796.40;;;21.90
67501;BMP180;54349;52.528;19.760;2022-07-06T01:30:36;100796.00;;;21.60
67501;BMP180;54349;52.528;19.760;2022-07-06T01:33:04;100798.00;;;21.60
67501;BMP180;54349;52.528;19.760;2022-07-06T01:35:35;100799.60;;;21.78
67501;BMP180;54349;52.528;19.760;2022-07-06T01:38:04;100804.60;;;21.90
67501;BMP180;54349;52.528;19.760;2022-07-06T01:40:32;100805.60;;;21.80
67501;BMP180;54349;52.528;19.760;2022-07-06T01:43:00;100814.60;;;21.60
67501;BMP180;54349;52.528;19.760;2022-07-06T01:45:31;100808.80;;;21.60
67501;BMP180;54349;52.528;19.760;2022-07-06T01:48:05;100808.40;;;21.70
67501;BMP180;54349;52.528;19.760;2022-07-06T01:50:34;100807.20;;;21.90
67501;BMP180;54349;52.528;19.760;2022-07-06T01:53:02;100803.00;;;21.80
67501;BMP180;54349;52.528;19.760;2022-07-06T01:55:31;100804.80;;;21.60
67501;BMP180;54349;52.528;19.760;2022-07-06T01:57:59;100804.20;;;21.62
67501;BMP180;54349;52.528;19.760;2022-07-06T02:00:27;100811.40;;;21.80
67501;BMP180;54349;52.528;19.760;2022-07-06T02:02:55;100809.00;;;21.90
67501;BMP180;54349;52.528;19.760;2022-07-06T02:05:24;100806.80;;;21.78
67501;BMP180;54349;52.528;19.760;2022-07-06T02:07:52;100810.40;;;21.50
67501;BMP180;54349;52.528;19.760;2022-07-06T02:10:20;100807.00;;;21.60
67501;BMP180;54349;52.528;19.760;2022-07-06T02:12:49;100808.60;;;21.70
67501;BMP180;54349;52.528;19.760;2022-07-06T02:15:17;100815.00;;;21.88
67501;BMP180;54349;52.528;19.760;2022-07-06T02:17:45;100811.20;;;21.72
67501;BMP180;54349;52.528;19.760;2022-07-06T02:20:13;100811.20;;;21.60
67501;BMP180;54349;52.528;19.760;2022-07-06T02:22:41;100810.60;;;21.70
67501;BMP180;54349;52.528;19.760;2022-07-06T02:25:10;100809.80;;;21.80
67501;BMP180;54349;52.528;19.760;2022-07-06T02:27:38;100807.40;;;21.90
67501;BMP180;54349;52.528;19.760;2022-07-06T02:30:08;100809.20;;;21.68
67501;BMP180;54349;52.528;19.760;2022-07-06T02:32:37;100810.20;;;21.60
67501;BMP180;54349;52.528;19.760;2022-07-06T02:35:06;100811.80;;;21.70
67501;BMP180;54349;52.528;19.760;2022-07-06T02:37:35;100808.20;;;21.80
67501;BMP180;54349;52.528;19.760;2022-07-06T02:40:04;100811.40;;;21.90
67501;BMP180;54349;52.528;19.760;2022-07-06T02:42:33;100808.00;;;21.70
67501;BMP180;54349;52.528;19.760;2022-07-06T02:45:02;100812.40;;;21.70
67501;BMP180;54349;52.528;19.760;2022-07-06T02:47:30;100817.20;;;21.80
67501;BMP180;54349;52.528;19.760;2022-07-06T02:49:59;100822.00;;;21.90
67501;BMP180;54349;52.528;19.760;2022-07-06T02:52:27;100820.60;;;21.90
67501;BMP180;54349;52.528;19.760;2022-07-06T02:54:56;100817.60;;;21.62
67501;BMP180;54349;52.528;19.760;2022-07-06T02:57:24;100817.40;;;21.70
67501;BMP180;54349;52.528;19.760;2022-07-06T02:59:53;100823.40;;;21.86
67501;BMP180;54349;52.528;19.760;2022-07-06T03:02:21;100820.40;;;21.92
67501;BMP180;54349;52.528;19.760;2022-07-06T03:04:50;100818.80;;;21.74
67501;BMP180;54349;52.528;19.760;2022-07-06T03:07:19;100826.60;;;21.64
67501;BMP180;54349;52.528;19.760;2022-07-06T03:09:47;100823.40;;;21.78
67501;BMP180;54349;52.528;19.760;2022-07-06T03:12:15;100820.20;;;21.90
67501;BMP180;54349;52.528;19.760;2022-07-06T03:14:44;100816.20;;;21.90
67501;BMP180;54349;52.528;19.760;2022-07-06T03:17:12;100804.40;;;21.70
67501;BMP180;54349;52.528;19.760;2022-07-06T03:19:42;100805.60;;;21.60
67501;BMP180;54349;52.528;19.760;2022-07-06T03:22:10;100794.80;;;21.74
67501;BMP180;54349;52.528;19.760;2022-07-06T03:24:39;100798.40;;;21.90
67501;BMP180;54349;52.528;19.760;2022-07-06T03:27:07;100791.60;;;21.90
67501;BMP180;54349;52.528;19.760;2022-07-06T03:29:36;100795.20;;;21.60
67501;BMP180;54349;52.528;19.760;2022-07-06T03:32:06;100794.00;;;21.60
67501;BMP180;54349;52.528;19.760;2022-07-06T03:34:35;100792.20;;;21.76
67501;BMP180;54349;52.528;19.760;2022-07-06T03:37:03;100788.00;;;21.90
67501;BMP180;54349;52.528;19.760;2022-07-06T03:39:32;100789.60;;;21.90
67501;BMP180;54349;52.528;19.760;2022-07-06T03:42:01;100786.20;;;21.62
67501;BMP180;54349;52.528;19.760;2022-07-06T03:44:30;100783.00;;;21.70
67501;BMP180;54349;52.528;19.760;2022-07-06T03:46:59;100782.00;;;21.80
67501;BMP180;54349;52.528;19.760;2022-07-06T03:49:27;100794.20;;;21.90
67501;BMP180;54349;52.528;19.760;2022-07-06T03:51:57;100789.00;;;21.80
67501;BMP180;54349;52.528;19.760;2022-07-06T03:54:26;100790.80;;;21.62
67501;BMP180;54349;52.528;19.760;2022-07-06T03:56:57;100790.20;;;21.70
67501;BMP180;54349;52.528;19.760;2022-07-06T03:59:25;100794.40;;;21.84
67501;BMP180;54349;52.528;19.760;2022-07-06T04:01:54;100796.00;;;21.96
67501;BMP180;54349;52.528;19.760;2022-07-06T04:04:23;100795.80;;;21.80
67501;BMP180;54349;52.528;19.760;2022-07-06T04:06:51;100798.80;;;21.60
67501;BMP180;54349;52.528;19.760;2022-07-06T04:09:19;100799.60;;;21.70
67501;BMP180;54349;52.528;19.760;2022-07-06T04:11:48;100795.60;;;21.82
67501;BMP180;54349;52.528;19.760;2022-07-06T04:14:17;100798.80;;;21.90
67501;BMP180;54349;52.528;19.760;2022-07-06T04:16:48;100794.00;;;21.80
67501;BMP180;54349;52.528;19.760;2022-07-06T04:19:16;100799.60;;;21.70
67501;BMP180;54349;52.528;19.760;2022-07-06T04:21:45;100801.80;;;21.80
67501;BMP180;54349;52.528;19.760;2022-07-06T04:24:14;100802.40;;;21.90
67501;BMP180;54349;52.528;19.760;2022-07-06T04:26:43;100798.00;;;22.00
67501;BMP180;54349;52.528;19.760;2022-07-06T04:29:11;100797.80;;;21.70
67501;BMP180;54349;52.528;19.760;2022-07-06T04:31:39;100799.20;;;21.60
67501;BMP180;54349;52.528;19.760;2022-07-06T04:34:08;100796.00;;;21.74
67501;BMP180;54349;52.528;19.760;2022-07-06T04:36:37;100793.60;;;21.88
67501;BMP180;54349;52.528;19.760;2022-07-06T04:39:06;100793.00;;;21.98
67501;BMP180;54349;52.528;19.760;2022-07-06T04:41:34;100790.00;;;21.74
67501;BMP180;54349;52.528;19.760;2022-07-06T04:44:03;100790.40;;;21.70
67501;BMP180;54349;52.528;19.760;2022-07-06T04:46:31;100788.20;;;21.80
67501;BMP180;54349;52.528;19.760;2022-07-06T04:48:59;100791.80;;;21.90
67501;BMP180;54349;52.528;19.760;2022-07-06T04:51:29;100792.20;;;21.90
67501;BMP180;54349;52.528;19.760;2022-07-06T04:53:58;100796.20;;;21.60
67501;BMP180;54349;52.528;19.760;2022-07-06T04:56:27;100795.80;;;21.60
67501;BMP180;54349;52.528;19.760;2022-07-06T04:58:56;100793.20;;;21.70
67501;BMP180;54349;52.528;19.760;2022-07-06T05:01:25;100797.40;;;21.80
67501;BMP180;54349;52.528;19.760;2022-07-06T05:03:53;100800.80;;;21.84
67501;BMP180;54349;52.528;19.760;2022-07-06T05:06:22;100797.80;;;21.60
67501;BMP180;54349;52.528;19.760;2022-07-06T05:08:51;100794.00;;;21.68
67501;BMP180;54349;52.528;19.760;2022-07-06T05:11:20;100790.40;;;21.80
67501;BMP180;54349;52.528;19.760;2022-07-06T05:13:49;100792.80;;;21.90
67501;BMP180;54349;52.528;19.760;2022-07-06T05:16:17;100795.60;;;21.90
67501;BMP180;54349;52.528;19.760;2022-07-06T05:18:47;100797.20;;;21.66
67501;BMP180;54349;52.528;19.760;2022-07-06T05:21:16;100796.80;;;21.70
67501;BMP180;54349;52.528;19.760;2022-07-06T05:23:44;100797.40;;;21.80
67501;BMP180;54349;52.528;19.760;2022-07-06T05:26:13;100801.40;;;21.90
67501;BMP180;54349;52.528;19.760;2022-07-06T05:28:42;100800.80;;;21.80
67501;BMP180;54349;52.528;19.760;2022-07-06T05:31:12;100799.60;;;21.60
67501;BMP180;54349;52.528;19.760;2022-07-06T05:33:41;100799.00;;;21.60
67501;BMP180;54349;52.528;19.760;2022-07-06T05:36:10;100798.20;;;21.74
67501;BMP180;54349;52.528;19.760;2022-07-06T05:38:39;100806.60;;;21.88
67501;BMP180;54349;52.528;19.760;2022-07-06T05:41:07;100804.60;;;21.80
67501;BMP180;54349;52.528;19.760;2022-07-06T05:43:36;100805.20;;;21.60
67501;BMP180;54349;52.528;19.760;2022-07-06T05:46:05;100806.20;;;21.56
67501;BMP180;54349;52.528;19.760;2022-07-06T05:48:34;100807.40;;;21.70
67501;BMP180;54349;52.528;19.760;2022-07-06T05:51:22;100805.60;;;21.80
67501;BMP180;54349;52.528;19.760;2022-07-06T05:53:51;100804.40;;;21.88
67501;BMP180;54349;52.528;19.760;2022-07-06T05:56:20;100807.40;;;21.60
67501;BMP180;54349;52.528;19.760;2022-07-06T05:58:48;100812.80;;;21.50
67501;BMP180;54349;52.528;19.760;2022-07-06T06:01:17;100817.00;;;21.60
67501;BMP180;54349;52.528;19.760;2022-07-06T06:03:55;100819.20;;;21.70
67501;BMP180;54349;52.528;19.760;2022-07-06T06:06:26;100812.00;;;21.80
67501;BMP180;54349;52.528;19.760;2022-07-06T06:08:54;100808.60;;;21.70
67501;BMP180;54349;52.528;19.760;2022-07-06T06:11:23;100806.60;;;21.50
67501;BMP180;54349;52.528;19.760;2022-07-06T06:13:51;100809.00;;;21.50
67501;BMP180;54349;52.528;19.760;2022-07-06T06:16:20;100813.80;;;21.60
67501;BMP180;54349;52.528;19.760;2022-07-06T06:18:48;100815.00;;;21.74
67501;BMP180;54349;52.528;19.760;2022-07-06T06:21:16;100818.60;;;21.80
67501;BMP180;54349;52.528;19.760;2022-07-06T06:23:45;100815.00;;;21.60
67501;BMP180;54349;52.528;19.760;2022-07-06T06:26:13;100811.80;;;21.40
67501;BMP180;54349;52.528;19.760;2022-07-06T06:28:41;100809.00;;;21.50
67501;BMP180;54349;52.528;19.760;2022-07-06T06:31:09;100808.20;;;21.60
67501;BMP180;54349;52.528;19.760;2022-07-06T06:33:37;100811.60;;;21.74
67501;BMP180;54349;52.528;19.760;2022-07-06T06:36:07;100808.80;;;21.70
67501;BMP180;54349;52.528;19.760;2022-07-06T06:38:35;100812.20;;;21.50
67501;BMP180;54349;52.528;19.760;2022-07-06T06:41:03;100808.20;;;21.60
67501;BMP180;54349;52.528;19.760;2022-07-06T06:43:32;100807.20;;;21.70
67501;BMP180;54349;52.528;19.760;2022-07-06T06:46:04;100807.80;;;21.80
67501;BMP180;54349;52.528;19.760;2022-07-06T06:48:32;100811.20;;;21.72
67501;BMP180;54349;52.528;19.760;2022-07-06T06:51:00;100811.20;;;21.50
67501;BMP180;54349;52.528;19.760;2022-07-06T06:53:29;100812.00;;;21.32
67501;BMP180;54349;52.528;19.760;2022-07-06T06:56:04;100809.40;;;21.46
67501;BMP180;54349;52.528;19.760;2022-07-06T06:58:32;100808.40;;;21.60
67501;BMP180;54349;52.528;19.760;2022-07-06T07:01:20;100805.80;;;21.70
67501;BMP180;54349;52.528;19.760;2022-07-06T07:03:51;100805.80;;;21.70
67501;BMP180;54349;52.528;19.760;2022-07-06T07:06:20;100803.00;;;21.40
67501;BMP180;54349;52.528;19.760;2022-07-06T07:08:48;100804.20;;;21.40
67501;BMP180;54349;52.528;19.760;2022-07-06T07:11:17;100801.40;;;21.50
67501;BMP180;54349;52.528;19.760;2022-07-06T07:13:45;100802.40;;;21.62
67501;BMP180;54349;52.528;19.760;2022-07-06T07:16:13;100800.20;;;21.78
67501;BMP180;54349;52.528;19.760;2022-07-06T07:18:41;100799.00;;;21.60
67501;BMP180;54349;52.528;19.760;2022-07-06T07:21:10;100791.20;;;21.40
67501;BMP180;54349;52.528;19.760;2022-07-06T07:23:38;100792.00;;;21.40
67501;BMP180;54349;52.528;19.760;2022-07-06T07:26:06;100794.40;;;21.58
67501;BMP180;54349;52.528;19.760;2022-07-06T07:28:34;100797.80;;;21.70
67501;BMP180;54349;52.528;19.760;2022-07-06T07:31:04;100798.80;;;21.70
67501;BMP180;54349;52.528;19.760;2022-07-06T07:33:33;100802.80;;;21.50
67501;BMP180;54349;52.528;19.760;2022-07-06T07:36:02;100798.60;;;21.38
67501;BMP180;54349;52.528;19.760;2022-07-06T07:38:30;100803.60;;;21.48
67501;BMP180;54349;52.528;19.760;2022-07-06T07:40:58;100802.20;;;21.60
67501;BMP180;54349;52.528;19.760;2022-07-06T07:43:27;100802.20;;;21.70
67501;BMP180;54349;52.528;19.760;2022-07-06T07:45:55;100801.20;;;21.70
67501;BMP180;54349;52.528;19.760;2022-07-06T07:48:23;100807.40;;;21.50
67501;BMP180;54349;52.528;19.760;2022-07-06T07:50:52;100807.80;;;21.40
67501;BMP180;54349;52.528;19.760;2022-07-06T07:53:21;100808.20;;;21.50
67501;BMP180;54349;52.528;19.760;2022-07-06T07:55:49;100810.40;;;21.70
67501;BMP180;54349;52.528;19.760;2022-07-06T07:58:18;100811.60;;;21.80
67501;BMP180;54349;52.528;19.760;2022-07-06T08:00:47;100808.80;;;21.60
67501;BMP180;54349;52.528;19.760;2022-07-06T08:03:15;100814.20;;;21.40
67501;BMP180;54349;52.528;19.760;2022-07-06T08:05:43;100814.40;;;21.40
67501;BMP180;54349;52.528;19.760;2022-07-06T08:08:11;100811.80;;;21.50
67501;BMP180;54349;52.528;19.760;2022-07-06T08:10:39;100810.20;;;21.64
67501;BMP180;54349;52.528;19.760;2022-07-06T08:13:28;100805.40;;;21.70
67501;BMP180;54349;52.528;19.760;2022-07-06T08:15:56;100803.80;;;21.50
67501;BMP180;54349;52.528;19.760;2022-07-06T08:18:24;100807.40;;;21.30
67501;BMP180;54349;52.528;19.760;2022-07-06T08:20:53;100805.80;;;21.38
67501;BMP180;54349;52.528;19.760;2022-07-06T08:23:44;100799.80;;;21.50
67501;BMP180;54349;52.528;19.760;2022-07-06T08:26:12;100794.80;;;21.68
67501;BMP180;54349;52.528;19.760;2022-07-06T08:28:46;100793.80;;;21.70
67501;BMP180;54349;52.528;19.760;2022-07-06T08:31:14;100791.20;;;21.46
67501;BMP180;54349;52.528;19.760;2022-07-06T08:34:03;100793.20;;;21.30
67501;BMP180;54349;52.528;19.760;2022-07-06T08:36:32;100794.00;;;21.40
67501;BMP180;54349;52.528;19.760;2022-07-06T08:39:00;100791.80;;;21.60
67501;BMP180;54349;52.528;19.760;2022-07-06T08:41:31;100791.20;;;21.70
67501;BMP180;54349;52.528;19.760;2022-07-06T08:44:01;100795.80;;;21.62
67501;BMP180;54349;52.528;19.760;2022-07-06T08:46:31;100794.80;;;21.40
67501;BMP180;54349;52.528;19.760;2022-07-06T08:49:06;100798.60;;;21.40
67501;BMP180;54349;52.528;19.760;2022-07-06T08:51:35;100792.20;;;21.50
67501;BMP180;54349;52.528;19.760;2022-07-06T08:54:05;100788.20;;;21.62
67501;BMP180;54349;52.528;19.760;2022-07-06T08:56:34;100793.00;;;21.80
67501;BMP180;54349;52.528;19.760;2022-07-06T08:59:20;100798.80;;;21.66
67501;BMP180;54349;52.528;19.760;2022-07-06T09:01:48;100800.40;;;21.42
67501;BMP180;54349;52.528;19.760;2022-07-06T09:04:21;100804.80;;;21.30
67501;BMP180;54349;52.528;19.760;2022-07-06T09:06:50;100807.00;;;21.40
67501;BMP180;54349;52.528;19.760;2022-07-06T09:09:24;100814.80;;;21.52
67501;BMP180;54349;52.528;19.760;2022-07-06T09:11:52;100815.40;;;21.70
67501;BMP180;54349;52.528;19.760;2022-07-06T09:14:21;100814.40;;;21.70
67501;BMP180;54349;52.528;19.760;2022-07-06T09:17:03;100819.80;;;21.50
67501;BMP180;54349;52.528;19.760;2022-07-06T09:19:34;100805.20;;;21.30
67501;BMP180;54349;52.528;19.760;2022-07-06T09:22:03;100804.00;;;21.38
67501;BMP180;54349;52.528;19.760;2022-07-06T09:24:32;100801.00;;;21.50
67501;BMP180;54349;52.528;19.760;2022-07-06T09:27:00;100797.00;;;21.70
67501;BMP180;54349;52.528;19.760;2022-07-06T09:29:30;100797.40;;;21.80
67501;BMP180;54349;52.528;19.760;2022-07-06T09:32:01;100804.40;;;21.68
67501;BMP180;54349;52.528;19.760;2022-07-06T09:34:44;100800.20;;;21.42
67501;BMP180;54349;52.528;19.760;2022-07-06T09:37:14;100795.60;;;21.30
67501;BMP180;54349;52.528;19.760;2022-07-06T09:39:43;100798.60;;;21.30
67501;BMP180;54349;52.528;19.760;2022-07-06T09:42:13;100796.80;;;21.50
67501;BMP180;54349;52.528;19.760;2022-07-06T09:44:41;100806.00;;;21.70
67501;BMP180;54349;52.528;19.760;2022-07-06T09:47:11;100798.20;;;21.80
67501;BMP180;54349;52.528;19.760;2022-07-06T09:49:40;100801.60;;;21.70
67501;BMP180;54349;52.528;19.760;2022-07-06T09:52:10;100794.00;;;21.50
67501;BMP180;54349;52.528;19.760;2022-07-06T09:54:39;100793.00;;;21.30
67501;BMP180;54349;52.528;19.760;2022-07-06T09:57:08;100796.80;;;21.40
67501;BMP180;54349;52.528;19.760;2022-07-06T09:59:37;100799.80;;;21.58
67501;BMP180;54349;52.528;19.760;2022-07-06T10:02:07;100799.80;;;21.70
67501;BMP180;54349;52.528;19.760;2022-07-06T10:04:36;100802.60;;;21.90
67501;BMP180;54349;52.528;19.760;2022-07-06T10:07:06;100797.60;;;21.80
67501;BMP180;54349;52.528;19.760;2022-07-06T10:09:35;100795.80;;;21.60
67501;BMP180;54349;52.528;19.760;2022-07-06T10:12:08;100798.20;;;21.40
67501;BMP180;54349;52.528;19.760;2022-07-06T10:14:40;100797.40;;;21.44
67501;BMP180;54349;52.528;19.760;2022-07-06T10:17:13;100802.00;;;21.60
67501;BMP180;54349;52.528;19.760;2022-07-06T10:19:42;100801.80;;;21.80
67501;BMP180;54349;52.528;19.760;2022-07-06T10:22:11;100802.00;;;21.90
67501;BMP180;54349;52.528;19.760;2022-07-06T10:24:41;100802.80;;;21.74
67501;BMP180;54349;52.528;19.760;2022-07-06T10:27:12;100804.80;;;21.50
67501;BMP180;54349;52.528;19.760;2022-07-06T10:29:42;100800.00;;;21.38
67501;BMP180;54349;52.528;19.760;2022-07-06T10:32:11;100797.20;;;21.50
67501;BMP180;54349;52.528;19.760;2022-07-06T10:34:39;100796.20;;;21.70
67501;BMP180;54349;52.528;19.760;2022-07-06T10:37:23;100800.00;;;21.82
67501;BMP180;54349;52.528;19.760;2022-07-06T10:39:52;100799.80;;;21.90
67501;BMP180;54349;52.528;19.760;2022-07-06T10:42:46;100792.00;;;21.70
67501;BMP180;54349;52.528;19.760;2022-07-06T10:48:18;100795.00;;;21.46
67501;BMP180;54349;52.528;19.760;2022-07-06T10:50:54;100796.60;;;21.62
67501;BMP180;54349;52.528;19.760;2022-07-06T10:53:26;100790.80;;;21.80
67501;BMP180;54349;52.528;19.760;2022-07-06T10:55:56;100789.20;;;22.00
67501;BMP180;54349;52.528;19.760;2022-07-06T11:01:15;100792.80;;;21.70
67501;BMP180;54349;52.528;19.760;2022-07-06T11:06:21;100795.20;;;21.50
67501;BMP180;54349;52.528;19.760;2022-07-06T11:09:03;100794.80;;;21.64
67501;BMP180;54349;52.528;19.760;2022-07-06T11:19:23;100796.00;;;21.70
67501;BMP180;54349;52.528;19.760;2022-07-06T11:22:08;100785.80;;;21.50
67501;BMP180;54349;52.528;19.760;2022-07-06T11:24:40;100789.60;;;21.52
67501;BMP180;54349;52.528;19.760;2022-07-06T11:27:09;100789.80;;;21.70
67501;BMP180;54349;52.528;19.760;2022-07-06T11:29:37;100799.60;;;21.90
67501;BMP180;54349;52.528;19.760;2022-07-06T11:32:09;100800.00;;;22.04
67501;BMP180;54349;52.528;19.760;2022-07-06T11:34:44;100803.20;;;21.98
67501;BMP180;54349;52.528;19.760;2022-07-06T11:37:14;100799.80;;;21.76
67501;BMP180;54349;52.528;19.760;2022-07-06T11:39:45;100796.80;;;21.52
67501;BMP180;54349;52.528;19.760;2022-07-06T11:42:17;100798.40;;;21.44
67501;BMP180;54349;52.528;19.760;2022-07-06T11:44:47;100799.00;;;21.60
67501;BMP180;54349;52.528;19.760;2022-07-06T11:47:16;100799.60;;;21.80
67501;BMP180;54349;52.528;19.760;2022-07-06T11:49:51;100804.20;;;21.94
67501;BMP180;54349;52.528;19.760;2022-07-06T11:52:21;100801.20;;;21.90
67501;BMP180;54349;52.528;19.760;2022-07-06T11:54:58;100802.20;;;21.70
67501;BMP180;54349;52.528;19.760;2022-07-06T11:57:32;100799.00;;;21.50
67501;BMP180;54349;52.528;19.760;2022-07-06T12:00:00;100806.00;;;21.40
67501;BMP180;54349;52.528;19.760;2022-07-06T12:02:39;100809.60;;;21.54
67501;BMP180;54349;52.528;19.760;2022-07-06T12:05:07;100810.60;;;21.70
67501;BMP180;54349;52.528;19.760;2022-07-06T12:07:36;100814.60;;;21.90
67501;BMP180;54349;52.528;19.760;2022-07-06T12:10:05;100812.60;;;21.80
67501;BMP180;54349;52.528;19.760;2022-07-06T12:12:33;100822.20;;;21.60
67501;BMP180;54349;52.528;19.760;2022-07-06T12:15:02;100826.40;;;21.40
67501;BMP180;54349;52.528;19.760;2022-07-06T12:17:30;100822.80;;;21.44
67501;BMP180;54349;52.528;19.760;2022-07-06T12:19:58;100823.80;;;21.60
67501;BMP180;54349;52.528;19.760;2022-07-06T12:22:27;100823.60;;;21.80
67501;BMP180;54349;52.528;19.760;2022-07-06T12:24:55;100824.60;;;21.90
67501;BMP180;54349;52.528;19.760;2022-07-06T12:27:23;100825.80;;;21.70
67501;BMP180;54349;52.528;19.760;2022-07-06T12:29:52;100822.20;;;21.50
67501;BMP180;54349;52.528;19.760;2022-07-06T12:32:21;100824.20;;;21.40
67501;BMP180;54349;52.528;19.760;2022-07-06T12:35:08;100825.60;;;21.54
67501;BMP180;54349;52.528;19.760;2022-07-06T12:37:37;100832.40;;;21.70
67501;BMP180;54349;52.528;19.760;2022-07-06T12:40:14;100831.40;;;21.90
67501;BMP180;54349;52.528;19.760;2022-07-06T12:42:46;100829.60;;;21.80
67501;BMP180;54349;52.528;19.760;2022-07-06T12:45:16;100833.40;;;21.58
67501;BMP180;54349;52.528;19.760;2022-07-06T12:48:03;100829.40;;;21.40
67501;BMP180;54349;52.528;19.760;2022-07-06T12:50:37;100830.20;;;21.50
67501;BMP180;54349;52.528;19.760;2022-07-06T12:53:25;100839.00;;;21.70
67501;BMP180;54349;52.528;19.760;2022-07-06T12:56:13;100847.20;;;21.84
67501;BMP180;54349;52.528;19.760;2022-07-06T12:58:59;100860.60;;;21.80
67501;BMP180;54349;52.528;19.760;2022-07-06T13:01:28;100868.20;;;21.56
67501;BMP180;54349;52.528;19.760;2022-07-06T13:03:57;100868.80;;;21.50
67501;BMP180;54349;52.528;19.760;2022-07-06T13:06:31;100874.20;;;21.60
67501;BMP180;54349;52.528;19.760;2022-07-06T13:09:00;100872.80;;;21.74
67501;BMP180;54349;52.528;19.760;2022-07-06T13:11:28;100879.80;;;21.90
67501;BMP180;54349;52.528;19.760;2022-07-06T13:13:56;100877.00;;;21.70
67501;BMP180;54349;52.528;19.760;2022-07-06T13:16:25;100877.60;;;21.50
67501;BMP180;54349;52.528;19.760;2022-07-06T13:18:58;100882.20;;;21.60
67501;BMP180;54349;52.528;19.760;2022-07-06T13:21:27;100882.60;;;21.76
67501;BMP180;54349;52.528;19.760;2022-07-06T13:23:55;100882.40;;;21.90
67501;BMP180;54349;52.528;19.760;2022-07-06T13:26:24;100884.60;;;21.80
67501;BMP180;54349;52.528;19.760;2022-07-06T13:28:52;100883.00;;;21.56
67501;BMP180;54349;52.528;19.760;2022-07-06T13:31:20;100880.80;;;21.60
67501;BMP180;54349;52.528;19.760;2022-07-06T13:33:48;100882.60;;;21.76
67501;BMP180;54349;52.528;19.760;2022-07-06T13:36:17;100887.20;;;21.90
67501;BMP180;54349;52.528;19.760;2022-07-06T13:38:45;100887.00;;;22.00
67501;BMP180;54349;52.528;19.760;2022-07-06T13:41:13;100887.60;;;21.72
67501;BMP180;54349;52.528;19.760;2022-07-06T13:43:42;100881.60;;;21.70
67501;BMP180;54349;52.528;19.760;2022-07-06T13:46:10;100883.60;;;21.86
67501;BMP180;54349;52.528;19.760;2022-07-06T13:48:40;100882.60;;;22.00
67501;BMP180;54349;52.528;19.760;2022-07-06T13:51:09;100880.00;;;21.96
67501;BMP180;54349;52.528;19.760;2022-07-06T13:53:37;100882.80;;;21.70
67501;BMP180;54349;52.528;19.760;2022-07-06T13:56:06;100886.00;;;21.60
67501;BMP180;54349;52.528;19.760;2022-07-06T13:58:36;100882.60;;;21.70
67501;BMP180;54349;52.528;19.760;2022-07-06T14:01:05;100882.20;;;21.86
67501;BMP180;54349;52.528;19.760;2022-07-06T14:03:33;100879.40;;;22.00
67501;BMP180;54349;52.528;19.760;2022-07-06T14:06:05;100876.80;;;21.90
67501;BMP180;54349;52.528;19.760;2022-07-06T14:08:38;100878.40;;;21.60
67501;BMP180;54349;52.528;19.760;2022-07-06T14:11:08;100877.20;;;21.70
67501;BMP180;54349;52.528;19.760;2022-07-06T14:13:37;100880.60;;;21.80
67501;BMP180;54349;52.528;19.760;2022-07-06T14:16:06;100880.80;;;21.90